Time;durP1;ratioP1;P1;durP2;ratioP2;P2;SDS_P1;SDS_P2;PMS_P1;PMS_P2;Temp;Humidity;BMP_temperature;BMP_pressure;BME280_temperature;BME280_humidity;BME280_pressure;Samples;Min_cycle;Max_cycle;Signal;HPM_P1;HPM_P2
2023/10/13 00:01:58;;;;;;;42.78;19.75;;;15.00;99.90;;;;;;5021485;28;20111;-73
2023/10/13 00:04:25;;;;;;;40.85;18.98;;;15.00;99.90;;;;;;5023427;28;20166;-73
2023/10/13 00:06:52;;;;;;;45.53;20.23;;;15.10;99.90;;;;;;5051044;28;20049;-73
2023/10/13 00:09:20;;;;;;;42.63;19.48;;;15.20;99.90;;;;;;5057614;28;20232;-73
2023/10/13 00:11:46;;;;;;;43.92;19.27;;;15.20;99.90;;;;;;5044706;28;20441;-73
2023/10/13 00:14:21;;;;;;;35.60;16.77;;;15.30;99.90;;;;;;5036321;28;20041;-73
2023/10/13 00:17:04;;;;;;;39.65;18.90;;;15.40;99.90;;;;;;5022639;28;20550;-74
2023/10/13 00:19:38;;;;;;;36.05;17.75;;;15.40;99.90;;;;;;5039538;28;20040;-73
2023/10/13 00:22:11;;;;;;;42.53;18.10;;;15.50;99.90;;;;;;5042327;28;20109;-73
2023/10/13 00:24:51;;;;;;;44.08;18.45;;;15.50;99.90;;;;;;5016382;28;20048;-73
2023/10/13 00:32:56;;;;;;;35.60;18.08;;;15.70;99.90;;;;;;5047526;28;20052;-73
2023/10/13 00:35:25;;;;;;;39.15;18.08;;;15.70;99.90;;;;;;5046408;28;20443;-74
2023/10/13 00:37:55;;;;;;;41.92;17.95;;;15.60;99.90;;;;;;5041762;28;20049;-73
2023/10/13 00:43:28;;;;;;;33.15;16.88;;;15.70;99.90;;;;;;5037228;28;20060;-74
2023/10/13 00:45:43;;;;;;;;;;;15.70;99.90;;;;;;5055254;28;20083;-74
2023/10/13 00:48:12;;;;;;;37.50;16.63;;;15.80;99.90;;;;;;5040914;28;19921;-73
2023/10/13 00:50:37;;;;;;;34.60;16.50;;;15.80;99.90;;;;;;5046919;28;20074;-74
2023/10/13 00:53:04;;;;;;;30.70;17.27;;;15.80;99.90;;;;;;5040156;28;20052;-74
2023/10/13 00:55:33;;;;;;;30.52;16.23;;;15.90;99.90;;;;;;5042525;28;20088;-74
2023/10/13 00:58:03;;;;;;;32.05;15.50;;;16.00;99.90;;;;;;5022282;28;20038;-74
2023/10/13 01:00:29;;;;;;;27.67;15.43;;;16.00;99.90;;;;;;5028132;28;20087;-74
2023/10/13 01:02:56;;;;;;;35.65;16.95;;;16.00;99.90;;;;;;5035508;28;20081;-74
2023/10/13 01:05:26;;;;;;;30.42;15.07;;;16.10;99.90;;;;;;5046604;28;20040;-74
2023/10/13 01:07:54;;;;;;;32.40;15.70;;;16.10;99.90;;;;;;5030374;28;20484;-74
2023/10/13 01:10:25;;;;;;;30.77;15.55;;;16.10;99.90;;;;;;5032356;28;20072;-74
2023/10/13 01:12:52;;;;;;;35.38;15.48;;;16.10;99.90;;;;;;5029697;28;20042;-74
2023/10/13 01:15:20;;;;;;;41.05;15.70;;;16.10;99.90;;;;;;5032954;28;20117;-74
2023/10/13 01:17:47;;;;;;;29.55;15.00;;;16.20;99.90;;;;;;5051674;28;20064;-74
2023/10/13 01:20:42;;;;;;;27.02;14.15;;;16.20;99.90;;;;;;5054211;28;20467;-74
2023/10/13 01:23:10;;;;;;;31.52;12.82;;;16.10;99.90;;;;;;5058829;28;20041;-74
2023/10/13 01:25:36;;;;;;;32.38;14.43;;;16.20;99.90;;;;;;5028747;28;20087;-74
2023/10/13 01:28:01;;;;;;;26.48;13.13;;;16.20;99.90;;;;;;5029483;28;20446;-74
2023/10/13 01:30:27;;;;;;;27.65;13.70;;;16.20;99.90;;;;;;5043177;28;20037;-73
2023/10/13 01:33:00;;;;;;;24.95;13.65;;;16.10;99.90;;;;;;5026593;28;20486;-74
2023/10/13 01:35:27;;;;;;;27.38;13.50;;;16.20;99.90;;;;;;5028003;28;20037;-74
2023/10/13 01:37:52;;;;;;;28.33;13.73;;;16.20;99.90;;;;;;5040084;28;20048;-74
2023/10/13 01:40:21;;;;;;;24.45;13.18;;;16.20;99.90;;;;;;5044054;28;20044;-74
2023/10/13 01:42:46;;;;;;;22.58;12.75;;;16.20;99.90;;;;;;5030015;28;20510;-74
2023/10/13 01:45:14;;;;;;;25.48;13.68;;;16.20;99.90;;;;;;5021353;28;20120;-74
2023/10/13 01:47:40;;;;;;;28.10;13.38;;;16.30;99.90;;;;;;5019832;28;20042;-74
2023/10/13 01:50:14;;;;;;;31.50;14.27;;;16.20;99.90;;;;;;5024415;28;20033;-74
2023/10/13 01:52:41;;;;;;;30.42;14.18;;;16.20;99.90;;;;;;5027933;28;20102;-74
2023/10/13 01:55:09;;;;;;;31.25;14.30;;;16.20;99.90;;;;;;5027074;28;20064;-74
2023/10/13 01:57:35;;;;;;;30.00;14.98;;;16.20;99.90;;;;;;5044181;28;20348;-74
2023/10/13 02:00:10;;;;;;;30.60;14.45;;;16.20;99.90;;;;;;5050965;28;20041;-74
2023/10/13 02:02:38;;;;;;;32.67;16.08;;;16.30;99.90;;;;;;5040283;28;20521;-73
2023/10/13 02:05:04;;;;;;;33.45;15.25;;;16.30;99.90;;;;;;5045897;28;20116;-74
2023/10/13 02:07:30;;;;;;;33.85;15.57;;;16.30;99.90;;;;;;5031820;28;20072;-74
2023/10/13 02:09:56;;;;;;;35.22;16.55;;;16.30;99.90;;;;;;5053258;28;20045;-74
2023/10/13 02:12:55;;;;;;;30.58;15.60;;;16.30;99.90;;;;;;5047267;28;20037;-74
2023/10/13 02:15:21;;;;;;;34.85;15.52;;;16.30;99.90;;;;;;5039027;28;20045;-74
2023/10/13 02:17:51;;;;;;;34.50;16.77;;;16.30;99.90;;;;;;5032041;28;20129;-74
2023/10/13 02:20:23;;;;;;;33.47;15.90;;;16.30;99.90;;;;;;5042000;28;20103;-74
2023/10/13 02:22:49;;;;;;;32.17;15.77;;;16.30;99.90;;;;;;5037929;28;20116;-74
2023/10/13 02:25:17;;;;;;;28.52;14.77;;;16.30;99.90;;;;;;5044265;28;20128;-74
2023/10/13 02:27:43;;;;;;;35.28;17.33;;;16.30;99.90;;;;;;5039318;28;20681;-74
2023/10/13 02:30:14;;;;;;;29.58;15.85;;;16.30;99.90;;;;;;5041338;28;20399;-74
2023/10/13 02:32:43;;;;;;;32.28;15.57;;;16.30;99.90;;;;;;5029524;28;20036;-74
2023/10/13 02:35:15;;;;;;;27.58;15.02;;;16.30;99.90;;;;;;5040767;28;20033;-74
2023/10/13 02:37:44;;;;;;;29.42;15.85;;;16.30;99.90;;;;;;5024559;28;20638;-74
2023/10/13 02:40:11;;;;;;;31.85;15.15;;;16.30;99.90;;;;;;5031575;28;20458;-74
2023/10/13 02:42:38;;;;;;;31.33;16.42;;;16.30;99.90;;;;;;5046773;28;20044;-74
2023/10/13 02:45:05;;;;;;;29.95;15.10;;;16.30;99.90;;;;;;5029959;28;20068;-74
2023/10/13 02:47:31;;;;;;;30.05;15.38;;;16.30;99.90;;;;;;5042594;28;20045;-74
2023/10/13 02:50:11;;;;;;;32.30;15.20;;;16.30;99.90;;;;;;5041602;28;20025;-74
2023/10/13 02:52:41;;;;;;;31.55;16.27;;;16.30;99.90;;;;;;5034030;28;20049;-74
2023/10/13 02:55:13;;;;;;;29.02;16.38;;;16.30;99.90;;;;;;5044929;28;20041;-74
2023/10/13 02:57:40;;;;;;;28.80;14.82;;;16.20;99.90;;;;;;5042990;28;20064;-74
2023/10/13 03:00:15;;;;;;;25.92;14.65;;;16.40;99.90;;;;;;5040262;28;20122;-74
2023/10/13 03:02:47;;;;;;;29.35;15.70;;;16.30;99.90;;;;;;5026403;28;20538;-74
2023/10/13 03:05:13;;;;;;;30.50;15.50;;;16.30;99.90;;;;;;5025142;28;20068;-74
2023/10/13 03:07:44;;;;;;;25.60;13.77;;;16.30;99.90;;;;;;5040765;28;20034;-74
2023/10/13 03:10:10;;;;;;;27.05;14.82;;;16.30;99.90;;;;;;5031712;28;20108;-74
2023/10/13 03:12:40;;;;;;;26.50;13.75;;;16.30;99.90;;;;;;5048702;28;20637;-74
2023/10/13 03:17:43;;;;;;;27.80;15.13;;;16.30;99.90;;;;;;5037559;28;20056;-74
2023/10/13 03:20:22;;;;;;;29.58;14.27;;;16.30;99.90;;;;;;5034908;28;20041;-75
2023/10/13 03:22:52;;;;;;;27.33;13.80;;;16.30;99.90;;;;;;5035418;28;20399;-75
2023/10/13 03:25:29;;;;;;;27.15;14.38;;;16.30;99.90;;;;;;5059759;28;22383;-75
2023/10/13 03:30:34;;;;;;;26.08;13.30;;;16.30;99.90;;;;;;5044530;28;20041;-76
2023/10/13 03:33:01;;;;;;;26.33;13.95;;;16.30;99.90;;;;;;5042556;28;20082;-76
2023/10/13 03:35:37;;;;;;;26.98;13.40;;;16.20;99.90;;;;;;5019724;28;20068;-76
2023/10/13 03:38:03;;;;;;;25.00;12.77;;;16.30;99.90;;;;;;5055000;28;20037;-76
2023/10/13 03:43:09;;;;;;;25.73;12.52;;;16.20;99.90;;;;;;5030168;28;20069;-76
2023/10/13 03:45:38;;;;;;;25.67;13.40;;;16.20;99.90;;;;;;5054226;28;20083;-77
2023/10/13 03:48:09;;;;;;;25.00;12.32;;;16.30;99.90;;;;;;5028704;28;20422;-77
2023/10/13 03:50:57;;;;;;;27.05;11.88;;;16.20;99.90;;;;;;5040051;28;20048;-76
2023/10/13 03:53:25;;;;;;;24.30;12.73;;;16.30;99.90;;;;;;5035975;28;20053;-76
2023/10/13 03:56:07;;;;;;;22.83;11.23;;;16.20;99.90;;;;;;5037546;28;20116;-76
2023/10/13 03:58:45;;;;;;;21.92;10.65;;;16.20;99.90;;;;;;5026298;28;20064;-76
2023/10/13 04:01:14;;;;;;;25.95;11.88;;;16.20;99.90;;;;;;5030663;28;20552;-75
2023/10/13 04:03:43;;;;;;;25.58;11.90;;;16.20;99.90;;;;;;5044809;28;20040;-78
2023/10/13 04:06:33;;;;;;;26.80;11.02;;;16.20;99.90;;;;;;5038231;28;21775;-76
2023/10/13 04:15:14;;;;;;;29.13;12.55;;;16.30;99.90;;;;;;5041095;28;20131;-76
2023/10/13 04:17:14;;;;;;;23.00;10.53;;;16.30;99.90;;;;;;5048797;28;20494;-76
2023/10/13 04:23:17;;;;;;;30.77;13.27;;;16.10;99.90;;;;;;5059194;28;20422;-76
2023/10/13 04:25:38;;;;;;;20.85;11.30;;;16.20;99.90;;;;;;5037973;28;20048;-76
2023/10/13 04:30:52;;;;;;;25.40;12.50;;;16.10;99.90;;;;;;5044001;28;20727;-76
2023/10/13 04:36:21;;;;;;;27.30;12.93;;;16.20;99.90;;;;;;5029203;28;20526;-75
2023/10/13 04:49:49;;;;;;;27.10;12.77;;;16.20;99.90;;;;;;5042865;28;20041;-74
2023/10/13 04:55:16;;;;;;;28.30;12.35;;;16.20;99.90;;;;;;5054814;28;20103;-75
2023/10/13 04:57:50;;;;;;;25.85;12.40;;;16.10;99.90;;;;;;5050443;28;20503;-75
2023/10/13 05:03:40;;;;;;;27.73;12.82;;;16.20;99.90;;;;;;5037991;28;20858;-74
2023/10/13 05:44:53;;;;;;;10.80;6.47;;;15.90;99.90;;;;;;5033716;28;20047;-73
2023/10/13 05:50:13;;;;;;;12.20;6.75;;;15.90;99.90;;;;;;5041107;28;20094;-73
2023/10/13 06:28:40;;;;;;;7.53;4.03;;;15.80;99.90;;;;;;5055276;28;20134;-73
2023/10/13 06:31:07;;;;;;;5.53;3.88;;;15.90;99.90;;;;;;5038809;28;20032;-73
2023/10/13 06:33:42;;;;;;;8.65;4.28;;;15.90;99.90;;;;;;5019172;28;20075;-73
2023/10/13 06:36:09;;;;;;;4.90;3.85;;;15.90;99.90;;;;;;5062533;28;20080;-73
2023/10/13 06:38:39;;;;;;;7.35;3.85;;;16.00;99.90;;;;;;5030542;28;20037;-73
2023/10/13 06:41:06;;;;;;;6.15;4.05;;;16.00;99.90;;;;;;5039416;28;20078;-73
2023/10/13 06:43:43;;;;;;;5.93;3.58;;;16.00;99.90;;;;;;5044952;28;20048;-73
2023/10/13 06:46:23;;;;;;;7.97;3.88;;;16.10;99.90;;;;;;5024717;28;20045;-73
2023/10/13 06:48:53;;;;;;;5.47;3.40;;;16.10;99.90;;;;;;5043531;28;20052;-73
2023/10/13 06:51:22;;;;;;;5.10;3.72;;;16.10;99.90;;;;;;5052271;28;20041;-72
2023/10/13 06:53:49;;;;;;;6.75;3.58;;;16.10;99.90;;;;;;5039976;28;20052;-74
2023/10/13 06:56:21;;;;;;;4.70;3.42;;;16.20;99.90;;;;;;5021103;28;20083;-74
2023/10/13 06:58:47;;;;;;;7.22;3.20;;;16.20;99.90;;;;;;5038763;28;20048;-74
2023/10/13 07:01:15;;;;;;;4.80;3.13;;;16.20;99.90;;;;;;5042877;28;20037;-74
2023/10/13 07:03:42;;;;;;;6.20;3.10;;;16.20;99.90;;;;;;5047407;28;20099;-74
2023/10/13 07:06:11;;;;;;;3.35;2.63;;;16.30;99.90;;;;;;5030119;28;20045;-74
2023/10/13 07:08:38;;;;;;;3.75;2.40;;;16.30;99.90;;;;;;5037667;28;20048;-74
2023/10/13 07:11:05;;;;;;;5.60;2.90;;;16.30;99.90;;;;;;5033894;28;20041;-74
2023/10/13 07:13:36;;;;;;;6.53;2.67;;;16.30;99.90;;;;;;5025049;28;20082;-74
2023/10/13 07:16:08;;;;;;;6.20;3.20;;;16.30;99.90;;;;;;5018145;28;20044;-74
2023/10/13 07:18:41;;;;;;;5.25;3.10;;;16.30;99.90;;;;;;5031367;28;20537;-74
2023/10/13 07:21:11;;;;;;;4.90;3.25;;;16.30;99.90;;;;;;5031501;28;20063;-74
2023/10/13 07:23:38;;;;;;;9.10;3.75;;;16.30;99.90;;;;;;5046537;28;20120;-74
2023/10/13 07:26:06;;;;;;;5.90;2.63;;;16.30;99.90;;;;;;5017951;28;20090;-74
2023/10/13 07:28:35;;;;;;;6.15;2.95;;;16.30;99.90;;;;;;5048275;28;20052;-74
2023/10/13 07:33:34;;;;;;;7.65;3.45;;;16.20;99.90;;;;;;5041538;28;20495;-74
2023/10/13 07:36:11;;;;;;;6.88;2.95;;;16.20;99.90;;;;;;5046827;28;20041;-74
2023/10/13 07:38:37;;;;;;;6.20;3.22;;;16.20;99.90;;;;;;5029965;28;20341;-74
2023/10/13 07:41:09;;;;;;;7.60;3.15;;;16.20;99.90;;;;;;5031212;28;20056;-74
2023/10/13 07:43:37;;;;;;;9.20;3.85;;;16.20;99.90;;;;;;5027361;28;20411;-74
2023/10/13 07:46:09;;;;;;;5.80;3.55;;;16.20;99.90;;;;;;5029340;28;20193;-74
2023/10/13 07:48:36;;;;;;;9.77;3.80;;;16.20;99.90;;;;;;5041762;28;20112;-73
2023/10/13 07:51:10;;;;;;;9.10;3.03;;;16.20;99.90;;;;;;5028805;28;20045;-73
2023/10/13 07:53:39;;;;;;;8.25;3.67;;;16.20;99.90;;;;;;5028958;28;20132;-73
2023/10/13 07:56:14;;;;;;;12.05;4.30;;;16.20;99.90;;;;;;5027450;28;20041;-73
2023/10/13 07:59:00;;;;;;;9.88;4.45;;;16.20;99.90;;;;;;5028782;28;20115;-73
2023/10/13 08:01:26;;;;;;;7.95;3.33;;;16.20;99.90;;;;;;5025088;28;20510;-73
2023/10/13 08:04:11;;;;;;;6.95;4.22;;;16.20;99.90;;;;;;5031236;28;20042;-74
2023/10/13 08:06:37;;;;;;;9.02;3.53;;;16.20;99.90;;;;;;5041484;28;20049;-74
2023/10/13 08:09:51;;;;;;;10.13;3.70;;;16.30;99.90;;;;;;5062123;28;20047;-74
2023/10/13 08:11:53;;;;;;;9.65;3.70;;;16.30;99.90;;;;;;5035003;28;20037;-74
2023/10/13 08:14:22;;;;;;;10.57;4.30;;;16.40;99.90;;;;;;5043664;28;20119;-74
2023/10/13 08:16:54;;;;;;;11.75;4.47;;;16.40;99.90;;;;;;5046995;28;20040;-74
2023/10/13 08:19:27;;;;;;;9.55;4.22;;;16.40;99.90;;;;;;5052632;28;20051;-74
2023/10/13 08:21:58;;;;;;;9.77;4.20;;;16.40;99.90;;;;;;5032088;28;20040;-74
2023/10/13 08:24:29;;;;;;;10.80;4.07;;;16.40;99.90;;;;;;5041627;28;20047;-74
2023/10/13 08:27:34;;;;;;;8.75;4.07;;;16.40;99.90;;;;;;5040678;28;20069;-74
2023/10/13 08:45:20;;;;;;;14.40;4.75;;;16.60;99.90;;;;;;5036356;28;20380;-74
2023/10/13 08:56:15;;;;;;;11.27;5.20;;;16.60;99.90;;;;;;5032693;28;20048;-74
2023/10/13 09:12:20;;;;;;;12.55;5.93;;;17.00;99.90;;;;;;5045904;28;20049;-74
2023/10/13 09:14:57;;;;;;;14.20;5.93;;;17.00;99.90;;;;;;5028063;28;20434;-74
2023/10/13 09:20:19;;;;;;;12.10;5.75;;;17.10;99.90;;;;;;5033962;28;20045;-74
2023/10/13 09:22:54;;;;;;;15.35;6.70;;;17.30;99.90;;;;;;5027560;28;20040;-75
2023/10/13 09:25:22;;;;;;;11.73;6.35;;;17.30;99.90;;;;;;5051854;28;20044;-74
2023/10/13 09:27:53;;;;;;;16.95;7.35;;;17.30;99.90;;;;;;5019003;28;20056;-74
2023/10/13 09:30:21;;;;;;;12.52;6.40;;;17.30;99.90;;;;;;5027539;28;20777;-74
2023/10/13 09:33:01;;;;;;;11.10;6.30;;;17.40;99.90;;;;;;5026582;28;20041;-74
2023/10/13 09:35:27;;;;;;;15.10;5.72;;;17.40;99.90;;;;;;5032563;28;20081;-74
2023/10/13 09:37:56;;;;;;;15.10;5.60;;;17.50;99.90;;;;;;5039443;28;20048;-74
2023/10/13 09:42:59;;;;;;;14.85;5.70;;;17.50;99.90;;;;;;5041229;28;20499;-74
2023/10/13 09:45:36;;;;;;;13.20;4.80;;;17.60;99.90;;;;;;5027650;28;20422;-74
2023/10/13 09:48:06;;;;;;;14.40;5.28;;;17.60;99.90;;;;;;5043853;28;20041;-75
2023/10/13 09:50:37;;;;;;;10.00;5.57;;;17.60;99.90;;;;;;5037385;28;20503;-75
2023/10/13 09:53:10;;;;;;;13.43;5.93;;;17.60;99.90;;;;;;5032685;28;20052;-74
2023/10/13 09:55:40;;;;;;;11.82;4.95;;;17.60;99.90;;;;;;5044899;28;20061;-74
2023/10/13 09:58:13;;;;;;;13.75;5.70;;;17.70;99.90;;;;;;5028642;28;20036;-74
2023/10/13 10:00:55;;;;;;;15.82;5.53;;;17.80;99.90;;;;;;5027884;28;20124;-74
2023/10/13 10:06:03;;;;;;;9.90;4.78;;;17.80;99.90;;;;;;5058657;28;20048;-74
2023/10/13 10:08:38;;;;;;;11.38;5.10;;;17.80;99.90;;;;;;5028712;28;20470;-74
2023/10/13 10:11:04;;;;;;;11.77;4.95;;;17.80;99.90;;;;;;5023176;28;20474;-74
2023/10/13 10:13:43;;;;;;;16.95;5.82;;;17.90;99.90;;;;;;5023163;28;20038;-74
2023/10/13 10:16:14;;;;;;;12.25;5.38;;;18.00;99.90;;;;;;5025417;28;20045;-74
2023/10/13 10:18:42;;;;;;;7.80;4.40;;;17.90;99.90;;;;;;5041451;28;20037;-74
2023/10/13 10:21:09;;;;;;;12.57;5.43;;;18.10;99.90;;;;;;5025044;28;20037;-74
2023/10/13 10:23:43;;;;;;;8.85;4.65;;;18.10;99.90;;;;;;5018325;28;20040;-74
2023/10/13 10:26:11;;;;;;;13.38;5.00;;;18.20;99.90;;;;;;5040351;28;20502;-74
2023/10/13 10:28:42;;;;;;;11.57;4.20;;;18.30;99.90;;;;;;5043216;28;20056;-74
2023/10/13 10:31:19;;;;;;;9.18;4.30;;;18.30;99.90;;;;;;5041645;28;20083;-74
2023/10/13 10:33:50;;;;;;;9.90;4.47;;;18.20;99.90;;;;;;5035244;28;20090;-73
2023/10/13 10:36:16;;;;;;;9.57;4.03;;;18.20;99.90;;;;;;5021287;28;20033;-74
2023/10/13 10:38:59;;;;;;;18.92;5.15;;;18.40;99.90;;;;;;5020843;28;20514;-74
2023/10/13 10:41:30;;;;;;;8.85;4.57;;;18.50;99.90;;;;;;5018113;28;20041;-74
2023/10/13 10:43:55;;;;;;;11.57;4.57;;;18.50;99.90;;;;;;5042681;28;20567;-74
2023/10/13 10:46:29;;;;;;;11.57;4.35;;;18.60;99.90;;;;;;5035094;28;20133;-74
2023/10/13 10:49:00;;;;;;;15.20;4.85;;;18.60;99.90;;;;;;5011512;28;20111;-74
2023/10/13 10:51:31;;;;;;;10.02;4.13;;;18.60;99.90;;;;;;5028797;28;20047;-74
2023/10/13 10:53:57;;;;;;;12.23;4.22;;;18.80;99.90;;;;;;5015205;28;20045;-74
2023/10/13 10:56:37;;;;;;;12.65;3.70;;;18.90;99.90;;;;;;5031820;28;20134;-75
2023/10/13 10:59:05;;;;;;;11.82;4.45;;;18.90;99.90;;;;;;5055317;28;20032;-74
2023/10/13 11:01:38;;;;;;;10.50;4.47;;;18.90;99.90;;;;;;5026068;28;20041;-75
2023/10/13 11:04:14;;;;;;;9.02;3.75;;;19.00;99.90;;;;;;5034749;28;20084;-75
2023/10/13 11:06:45;;;;;;;;;;;19.10;99.90;;;;;;5026322;28;20037;-74
2023/10/13 11:09:31;;;;;;;12.93;4.80;;;19.10;99.90;;;;;;5030771;28;20402;-74
2023/10/13 11:12:06;;;;;;;12.00;3.70;;;19.10;99.90;;;;;;5041795;28;20064;-74
2023/10/13 11:14:32;;;;;;;13.00;3.55;;;19.30;99.90;;;;;;5029046;28;20657;-75
2023/10/13 11:17:13;;;;;;;12.00;3.95;;;19.30;99.90;;;;;;5045619;28;20036;-73
2023/10/13 11:19:42;;;;;;;12.85;4.00;;;19.20;99.90;;;;;;5044984;28;20163;-74
2023/10/13 11:22:41;;;;;;;13.23;4.95;;;19.00;99.90;;;;;;5028863;28;20041;-74
2023/10/13 11:25:10;;;;;;;8.95;4.20;;;18.90;99.90;;;;;;5036853;28;20037;-74
2023/10/13 11:30:14;;;;;;;13.77;4.40;;;18.80;99.90;;;;;;5044970;28;20048;-74
2023/10/13 11:32:43;;;;;;;11.50;4.40;;;18.60;99.90;;;;;;5040875;28;20046;-74
2023/10/13 11:35:20;;;;;;;12.85;4.03;;;18.50;99.90;;;;;;5040478;28;20037;-74
2023/10/13 11:37:56;;;;;;;14.07;4.07;;;18.40;99.90;;;;;;5040754;28;20044;-74
2023/10/13 11:40:43;;;;;;;12.68;4.72;;;18.40;99.90;;;;;;5035269;28;20081;-74
2023/10/13 11:43:14;;;;;;;9.75;4.28;;;18.40;99.90;;;;;;5021958;28;20045;-73
2023/10/13 11:48:36;;;;;;;16.10;4.97;;;18.30;99.90;;;;;;5037549;28;20057;-74
2023/10/13 11:51:08;;;;;;;10.98;4.13;;;18.20;99.90;;;;;;5047295;28;20064;-74
2023/10/13 11:53:38;;;;;;;13.70;4.53;;;18.20;99.90;;;;;;5033802;28;20057;-74
2023/10/13 11:56:09;;;;;;;11.68;4.20;;;18.20;99.90;;;;;;5028094;28;20491;-74
2023/10/13 11:58:40;;;;;;;15.25;5.20;;;18.20;99.90;;;;;;5022783;28;20423;-74
2023/10/13 12:11:50;;;;;;;11.60;4.22;;;18.30;99.90;;;;;;5035255;28;19967;-73
2023/10/13 12:14:19;;;;;;;10.80;4.35;;;18.40;99.90;;;;;;5028084;28;20041;-74
2023/10/13 12:16:55;;;;;;;11.38;4.25;;;18.50;99.90;;;;;;5057252;28;20037;-73
2023/10/13 12:19:26;;;;;;;10.30;3.75;;;18.60;99.90;;;;;;5045301;28;20044;-74
2023/10/13 12:21:56;;;;;;;12.35;4.68;;;18.40;99.90;;;;;;5044449;28;20052;-74
2023/10/13 12:27:02;;;;;;;9.27;4.47;;;18.30;99.90;;;;;;5029129;28;20061;-74
2023/10/13 12:29:28;;;;;;;11.02;5.57;;;18.20;99.90;;;;;;5045127;28;20037;-74
2023/10/13 12:32:05;;;;;;;10.60;5.95;;;18.20;99.90;;;;;;5039302;28;20092;-74
2023/10/13 12:34:57;;;;;;;13.32;5.85;;;18.20;99.90;;;;;;5036874;28;20431;-74
2023/10/13 12:37:38;;;;;;;14.90;4.60;;;18.20;99.90;;;;;;5030078;28;20048;-74
2023/10/13 12:51:19;;;;;;;11.38;4.47;;;18.00;99.90;;;;;;5040759;28;20640;-74
2023/10/13 12:53:55;;;;;;;12.13;5.18;;;18.00;99.90;;;;;;5026149;28;20081;-74
2023/10/13 12:56:28;;;;;;;10.35;4.43;;;18.00;99.90;;;;;;5043448;28;20044;-74
2023/10/13 12:58:54;;;;;;;13.43;5.03;;;18.00;99.90;;;;;;5027793;28;20052;-74
2023/10/13 13:01:21;;;;;;;10.48;4.25;;;18.00;99.90;;;;;;5042687;28;20037;-74
2023/10/13 13:03:48;;;;;;;11.57;4.35;;;18.00;99.90;;;;;;5022442;28;20106;-74
2023/10/13 13:06:24;;;;;;;16.75;5.32;;;18.00;99.90;;;;;;5039449;28;20057;-74
2023/10/13 13:09:00;;;;;;;16.90;5.97;;;18.00;99.90;;;;;;5025658;28;20048;-74
2023/10/13 13:11:29;;;;;;;10.68;4.45;;;18.00;99.90;;;;;;5034657;28;20605;-74
2023/10/13 13:13:55;;;;;;;9.90;4.55;;;18.00;99.90;;;;;;5036549;28;20459;-75
2023/10/13 13:16:30;;;;;;;9.73;4.68;;;17.90;99.90;;;;;;5038846;28;20120;-74
2023/10/13 13:18:56;;;;;;;9.15;4.70;;;17.80;99.90;;;;;;5049194;28;20051;-74
2023/10/13 13:21:25;;;;;;;11.57;4.85;;;17.80;99.90;;;;;;5044642;28;20197;-74
2023/10/13 13:23:54;;;;;;;11.30;4.65;;;17.70;99.90;;;;;;5045153;28;20044;-73
2023/10/13 13:26:23;;;;;;;14.88;5.97;;;17.70;99.90;;;;;;5029155;28;20515;-74
2023/10/13 13:28:52;;;;;;;13.80;5.85;;;17.60;99.90;;;;;;5032313;28;20044;-74
2023/10/13 13:31:18;;;;;;;13.63;5.18;;;17.60;99.90;;;;;;5041522;28;20239;-74
2023/10/13 13:33:44;;;;;;;15.95;5.30;;;17.60;99.90;;;;;;5037241;28;20136;-74
2023/10/13 13:36:14;;;;;;;13.52;5.22;;;17.60;99.90;;;;;;5026677;28;20523;-74
2023/10/13 13:38:41;;;;;;;15.25;4.47;;;17.60;99.90;;;;;;5027159;28;20079;-74
2023/10/13 13:41:16;;;;;;;15.52;5.00;;;17.60;99.90;;;;;;5026257;28;20032;-74
2023/10/13 13:43:55;;;;;;;16.33;4.82;;;17.60;99.90;;;;;;5039210;28;20132;-74
2023/10/13 13:46:24;;;;;;;16.23;5.70;;;17.60;99.90;;;;;;5043217;28;20036;-74
2023/10/13 13:48:51;;;;;;;13.82;5.38;;;17.50;99.90;;;;;;5025855;28;20036;-74
2023/10/13 13:51:26;;;;;;;12.40;5.95;;;17.50;99.90;;;;;;5028224;28;20526;-74
2023/10/13 13:53:52;;;;;;;20.02;5.55;;;17.60;99.90;;;;;;5040274;28;20053;-74
2023/10/13 13:56:19;;;;;;;17.45;5.78;;;17.50;99.90;;;;;;5019545;28;20116;-74
2023/10/13 13:58:45;;;;;;;14.00;5.00;;;17.50;99.90;;;;;;5025620;28;20110;-74
2023/10/13 14:01:26;;;;;;;13.13;5.85;;;17.50;99.90;;;;;;5025678;28;20053;-74
2023/10/13 14:03:56;;;;;;;17.80;5.75;;;17.60;99.90;;;;;;5043741;28;20760;-74
2023/10/13 14:06:24;;;;;;;16.15;4.72;;;17.60;99.90;;;;;;5036252;28;20511;-74
2023/10/13 14:08:51;;;;;;;14.73;6.82;;;17.50;99.90;;;;;;5023498;28;20045;-74
2023/10/13 14:14:04;;;;;;;13.38;6.47;;;17.50;99.90;;;;;;5045844;28;20051;-74
2023/10/13 14:16:33;;;;;;;15.75;6.10;;;17.60;99.90;;;;;;5045446;28;20053;-74
2023/10/13 14:19:01;;;;;;;13.20;5.43;;;17.60;99.90;;;;;;5026747;28;20048;-75
2023/10/13 14:21:27;;;;;;;17.00;7.22;;;17.60;99.90;;;;;;5022308;28;20099;-74
2023/10/13 14:23:54;;;;;;;17.17;6.40;;;17.60;99.90;;;;;;5040055;28;20163;-74
2023/10/13 14:26:23;;;;;;;12.85;5.97;;;17.50;99.90;;;;;;5042429;28;20126;-74
2023/10/13 14:29:03;;;;;;;14.32;6.72;;;17.50;99.90;;;;;;5026810;28;20052;-73
2023/10/13 14:31:30;;;;;;;14.95;5.97;;;17.50;99.90;;;;;;5028146;28;20417;-75
2023/10/13 14:33:56;;;;;;;15.13;5.78;;;17.50;99.90;;;;;;5042631;28;20041;-74
2023/10/13 14:36:23;;;;;;;13.10;5.90;;;17.50;99.90;;;;;;5047623;28;20112;-74
2023/10/13 14:38:52;;;;;;;13.30;5.45;;;17.50;99.90;;;;;;5043711;28;20048;-74
2023/10/13 14:41:18;;;;;;;11.40;4.97;;;17.50;99.90;;;;;;5048111;28;20036;-74
2023/10/13 14:43:50;;;;;;;14.98;5.45;;;17.60;99.90;;;;;;5061225;28;20052;-74
2023/10/13 14:46:16;;;;;;;11.55;5.35;;;17.50;99.90;;;;;;5013840;28;20041;-74
2023/10/13 14:48:48;;;;;;;14.05;6.40;;;17.60;99.90;;;;;;5043046;28;20059;-74
2023/10/13 14:51:16;;;;;;;14.98;6.90;;;17.60;99.90;;;;;;5037981;28;20044;-74
2023/10/13 14:53:46;;;;;;;12.52;5.50;;;17.50;99.90;;;;;;5026844;28;20669;-74
2023/10/13 14:56:15;;;;;;;15.90;5.40;;;17.60;99.90;;;;;;5047866;28;20056;-74
2023/10/13 14:58:42;;;;;;;13.35;5.30;;;17.50;99.90;;;;;;5024834;28;20131;-74
2023/10/13 15:01:15;;;;;;;11.15;5.15;;;17.50;99.90;;;;;;5025287;28;20029;-74
2023/10/13 15:03:44;;;;;;;13.20;7.00;;;17.50;99.90;;;;;;5045547;28;20475;-74
2023/10/13 15:06:17;;;;;;;13.90;6.72;;;17.50;99.90;;;;;;5046966;28;20067;-74
2023/10/13 15:08:47;;;;;;;14.23;5.57;;;17.50;99.90;;;;;;5042659;28;20037;-73
2023/10/13 15:11:18;;;;;;;12.23;5.85;;;17.40;99.90;;;;;;5041648;28;20060;-74
2023/10/13 15:13:44;;;;;;;19.48;6.65;;;17.40;99.90;;;;;;5027384;28;20040;-74
2023/10/13 15:16:26;;;;;;;19.45;6.78;;;17.40;99.90;;;;;;5031468;28;20037;-74
2023/10/13 15:18:52;;;;;;;11.82;6.75;;;17.30;99.90;;;;;;5031088;28;20052;-74
2023/10/13 15:21:34;;;;;;;17.27;6.90;;;17.30;99.90;;;;;;5047655;28;20036;-73
2023/10/13 15:24:04;;;;;;;13.50;7.03;;;17.30;99.90;;;;;;5021480;28;20072;-74
2023/10/13 15:26:30;;;;;;;13.45;7.10;;;17.30;99.90;;;;;;5030216;28;20040;-74
2023/10/13 15:28:57;;;;;;;15.40;7.00;;;17.30;99.90;;;;;;5046225;28;20128;-74
2023/10/13 15:31:26;;;;;;;19.33;7.45;;;17.20;99.90;;;;;;5028067;28;20059;-74
2023/10/13 15:33:56;;;;;;;16.80;7.35;;;17.30;99.90;;;;;;5030722;28;20044;-74
2023/10/13 15:36:23;;;;;;;14.00;7.47;;;17.30;99.90;;;;;;5030037;28;20106;-74
2023/10/13 15:38:53;;;;;;;20.85;8.15;;;17.20;99.90;;;;;;5061189;28;20044;-74
2023/10/13 15:41:28;;;;;;;17.77;7.22;;;17.20;99.90;;;;;;5036830;28;20154;-74
2023/10/13 15:43:55;;;;;;;15.10;6.82;;;17.20;99.90;;;;;;5034953;28;20033;-74
2023/10/13 15:46:22;;;;;;;18.27;7.20;;;17.20;99.90;;;;;;5026804;28;20041;-74
2023/10/13 15:48:48;;;;;;;12.68;6.90;;;17.20;99.90;;;;;;5024761;28;20037;-74
2023/10/13 15:51:14;;;;;;;14.88;6.95;;;17.20;99.90;;;;;;5028392;28;20037;-74
2023/10/13 15:53:40;;;;;;;17.73;7.43;;;17.10;99.90;;;;;;5045871;28;20499;-75
2023/10/13 15:56:11;;;;;;;14.18;7.28;;;17.20;99.90;;;;;;5031986;28;20132;-74
2023/10/13 15:58:47;;;;;;;19.83;6.57;;;17.20;99.90;;;;;;5029941;28;20123;-74
2023/10/13 16:01:16;;;;;;;15.60;6.93;;;17.20;99.90;;;;;;5047510;28;20037;-74
2023/10/13 16:03:49;;;;;;;19.17;7.40;;;17.20;99.90;;;;;;5046200;28;20098;-74
2023/10/13 16:06:25;;;;;;;16.88;7.45;;;17.20;99.90;;;;;;5034645;28;20040;-73
2023/10/13 16:08:52;;;;;;;14.30;6.32;;;17.20;99.90;;;;;;5046183;28;20044;-74
2023/10/13 16:11:18;;;;;;;16.83;7.95;;;17.20;99.90;;;;;;5039337;28;20049;-74
2023/10/13 16:13:45;;;;;;;14.23;6.43;;;17.20;99.90;;;;;;5027677;28;20502;-73
2023/10/13 16:16:24;;;;;;;15.32;7.15;;;17.20;99.90;;;;;;5029147;28;20033;-73
2023/10/13 16:18:51;;;;;;;13.50;6.22;;;17.20;99.90;;;;;;5042538;28;20045;-74
2023/10/13 16:21:18;;;;;;;13.18;6.18;;;17.20;99.90;;;;;;5028239;28;20037;-74